Delray Beach, FL (33483)

12:16 PM EDT on July 03, 2015 (GMT -0400)
Tropic Isle Delray | | Change Station
CLOSE
Current Station
Personal Weather Station
Location: Delray Beach, FL
Elevation: 23 ft
Nearby Weather Stations

Elev 23 ft 26.43 °N, 80.07 °W | Updated 5 seconds ago

Partly Cloudy
Partly Cloudy
87.4 °F
Feels Like 110 °F
N
5.6
Wind Variable Wind from NE
Gusts 7.4 mph

Today
High -- | Low -- °F
--% Chance of Precip.
Yesterday
High -- | Low -- °F
Precip. -- in
6:31 AM 8:17 PM
Full, 97% visible
Pressure 30.11 in
Visibility 10.0 miles
Clouds Scattered Clouds 2400 ft
Scattered Clouds 25000 ft
Heat Index 110 °F
Dew Point 84 °F
Humidity 89%
Rainfall 0.00 in
Snow Depth Not available.
UV 10.0 out of 12
Pollen 4.40 out of 12
Air Quality Not available.
Flu Activity Not available.
METAR KPMP 031553Z 10008KT 10SM SCT024 SCT250 31/24 A3011 RMK AO2 SLP195 T03110239

More Conditions Fewer Conditions

Pressure 30.11 in
Visibility 10.0 miles
Clouds Scattered Clouds 2400 ft
Scattered Clouds 25000 ft
Heat Index 110 °F
Dew Point 84 °F
Humidity 89%
Rainfall 0.00 in
Snow Depth Not available.
UV 10.0 out of 12
Pollen 4.40 out of 12
Air Quality Not available.
Flu Activity Not available.
METAR KPMP 031553Z 10008KT 10SM SCT024 SCT250 31/24 A3011 RMK AO2 SLP195 T03110239

More Conditions Fewer Conditions

10-Day Weather Forecast

×

Almanac

Astronomy

Jul. 03, 2015 Rise Set
Actual Time
Civil Twilight
Nautical Twilight
Astronomical Twilight
Moon
Length of Visible Light
Length of Day
Tomorrow will be .
, % of the Moon is Illuminated

Today's Extremes

State Highs State Lows

Community

WunderPhotos

Upload Photos

1,834,688 photos uploaded!

WunderBlogs® & News

Nearby

Air Quality

  Air Quality AQ Index Pollutant
Not available.

Snow Depth

Station Depth Elevation

Earthquake Activity

City Distance Mag. Time & Date
Minimum magnitude displayed is 2.5.

Coastal Water Temperatures

Place Temperature

Stations

Nearby Weather Stations

Station Location Temp. Windchill Dew Point Humidity Wind Precip. Elev Updated Type